Latest Weather Observations for Legendre Island

IDW60801

Issued at 3:04 pm WST Sunday 11 April 2021 (issued every 10 minutes, with the page automatically refreshed every 10 minutes)

About weather observations | Map of weather stations | Latest weather observations for WA | Other Formats
Station Details ID: 004095 Name: LEGENDRE ISLAND Lat: -20.36 Lon: 116.84 Height: 29.0 m
Data from the previous 72 hours. | See also: Recent months at Legendre Island
Date/Time
WST
Temp
°C
App
Temp
°C
Dew
Point
°C
Rel
Hum
%
Delta-T
°C
Wind Press
QNH
hPa
Press
MSL
hPa
Rain since
9am
mm
Dir  Spd
km/h
Gust
km/h
Spd
kts
Gust
kts
11/03:00pm 30.7 34.8 25.8 75 3.5 N 15 19 8 10 1009.9 1009.7 -
11/02:30pm 30.8 34.9 25.8 74 3.6 N 15 19 8 10 1009.9 1009.7 -
11/02:00pm 30.8 34.0 25.6 74 3.7 N 19 22 10 12 1009.8 1009.6 -
11/01:30pm 30.5 33.5 25.6 75 3.5 N 20 24 11 13 1009.9 1009.7 -
11/01:00pm 30.8 34.0 25.8 74 3.6 NNE 20 24 11 13 1010.1 1009.9 -
11/12:30pm 31.1 34.5 25.9 74 3.7 N 19 22 10 12 1010.4 1010.2 -
11/12:00pm 31.1 34.5 26.1 75 3.6 N 20 22 11 12 1010.8 1010.6 -
11/11:30am 31.0 35.2 26.5 77 3.2 N 17 20 9 11 1011.1 1010.9 -
11/11:00am 30.9 34.7 26.4 77 3.2 N 19 22 10 12 1011.3 1011.1 -
11/10:30am 30.3 33.1 25.8 77 3.2 N 22 26 12 14 1011.2 1011.0 -
11/10:00am 30.1 32.6 25.4 76 3.3 N 22 26 12 14 1011.3 1011.1 -
11/09:30am 29.9 32.4 25.9 79 2.8 N 24 28 13 15 1011.0 1010.8 -
11/09:00am 29.7 31.7 25.7 79 2.8 N 26 30 14 16 1011.1 1010.9 -
11/08:30am 29.5 31.6 25.9 81 2.6 N 26 28 14 15 1010.9 1010.7 -
11/08:00am 29.2 32.5 26.0 83 2.3 N 20 24 11 13 1011.2 1011.0 -
11/07:30am 28.9 32.3 25.9 84 2.1 N 19 22 10 12 1011.3 1011.1 -
11/07:00am 28.5 32.2 25.7 85 2.0 N 17 20 9 11 1011.1 1010.9 -
11/06:30am 28.4 31.9 26.0 87 1.7 N 19 22 10 12 1011.0 1010.8 -
11/06:00am 28.4 31.2 25.8 86 1.8 N 22 26 12 14 1010.9 1010.7 -
11/05:30am 28.4 31.1 25.6 85 2.0 N 22 26 12 14 1010.8 1010.6 -
11/05:00am 28.5 31.2 25.7 85 2.0 N 22 28 12 15 1010.7 1010.5 -
11/04:30am 28.6 31.3 25.6 84 2.1 N 22 26 12 14 1010.5 1010.3 -
11/04:00am 28.4 31.1 25.6 85 2.0 N 22 26 12 14 1010.3 1010.1 -
11/03:30am 28.4 31.1 25.0 82 2.4 N 20 24 11 13 1010.4 1010.2 -
11/03:00am 28.4 31.3 25.4 84 2.1 N 20 24 11 13 1010.3 1010.1 -
11/02:30am 28.2 30.2 25.2 84 2.1 N 24 28 13 15 1010.4 1010.2 -
11/02:00am 28.3 30.9 25.5 85 2.0 N 22 26 12 14 1010.7 1010.5 -
11/01:30am 28.3 30.9 25.5 85 2.0 N 22 26 12 14 1010.9 1010.7 -
11/01:00am 28.3 30.5 25.5 85 2.0 N 24 28 13 15 1011.1 1010.9 -
11/12:30am 28.4 30.3 25.6 85 2.0 N 26 30 14 16 1011.0 1010.8 -
11/12:00am 28.5 30.7 26.1 87 1.7 N 26 32 14 17 1011.4 1011.2 -
 
Date/Time
WST
Temp
°C
App
Temp
°C
Dew
Point
°C
Rel
Hum
%
Delta-T
°C
Wind Press
QNH
hPa
Press
MSL
hPa
Rain since
9am
mm
Dir  Spd
km/h
Gust
km/h
Spd
kts
Gust
kts
10/11:30pm 28.4 30.6 26.0 87 1.7 N 26 32 14 17 1011.2 1011.0 -
10/11:00pm 28.5 31.2 26.3 88 1.6 N 24 28 13 15 1011.3 1011.1 -
10/10:30pm 28.6 32.1 26.0 86 1.8 N 19 22 10 12 1011.5 1011.3 -
10/10:00pm 28.5 32.0 25.5 84 2.1 N 17 19 9 10 1011.6 1011.4 -
10/09:30pm 28.6 31.3 25.0 81 2.5 N 20 24 11 13 1011.5 1011.3 -
10/09:00pm 28.4 31.4 26.2 88 1.6 N 22 28 12 15 1011.5 1011.3 -
10/08:30pm 28.6 31.4 26.4 88 1.6 NNE 24 30 13 16 1011.1 1010.9 -
10/08:00pm 28.6 30.6 26.4 88 1.6 NNE 28 33 15 18 1010.6 1010.4 -
10/07:30pm 28.7 30.4 25.9 85 2.0 NNE 28 33 15 18 1010.3 1010.1 -
10/07:00pm 28.9 30.4 26.1 85 2.0 NNE 30 35 16 19 1009.9 1009.7 -
10/06:30pm 28.6 31.1 27.0 91 1.1 N 28 32 15 17 1010.1 1009.9 -
10/06:00pm 28.3 31.0 27.4 95 0.6 N 28 33 15 18 1009.7 1009.5 -
10/05:30pm 28.4 32.2 27.9 97 0.4 N 24 37 13 20 1009.6 1009.4 -
10/05:05pm 25.7 23.9 24.8 95 0.6 NNE 43 70 23 38 1009.9 1009.7 -
10/05:02pm 27.3 26.7 25.5 90 1.3 NNE 39 70 21 38 1008.8 1008.6 -
10/05:01pm 28.9 28.9 25.9 84 2.1 NNE 37 70 20 38 1008.9 1008.7 -
10/05:00pm 29.6 30.4 26.0 81 2.6 NNE 33 50 18 27 1009.2 1009.0 -
10/04:30pm 29.6 30.7 26.2 82 2.4 NNE 32 37 17 20 1008.9 1008.7 -
10/04:00pm 29.9 30.3 25.9 79 2.8 NNE 35 39 19 21 1008.5 1008.3 -
10/03:30pm 30.5 31.8 26.7 80 2.7 NNE 33 39 18 21 1008.4 1008.2 -
10/03:00pm 30.4 31.0 26.3 79 2.9 NNE 35 41 19 22 1008.3 1008.1 -
10/02:30pm 30.7 31.4 26.4 78 3.1 NNE 35 39 19 21 1008.3 1008.1 -
10/02:00pm 30.8 31.4 26.3 77 3.2 NNE 35 41 19 22 1008.5 1008.3 -
10/01:30pm 30.8 31.1 26.3 77 3.2 NNE 37 41 20 22 1008.6 1008.4 -
10/01:00pm 30.5 31.3 26.0 77 3.2 NNE 33 39 18 21 1008.8 1008.6 -
10/12:30pm 31.0 31.8 26.5 77 3.2 NE 35 41 19 22 1009.1 1008.9 -
10/12:00pm 30.8 31.7 26.1 76 3.4 NNE 33 39 18 21 1009.3 1009.1 -
10/11:30am 30.8 31.3 26.1 76 3.4 NNE 35 39 19 21 1009.5 1009.3 -
10/11:00am 30.8 31.8 26.3 77 3.2 NNE 33 39 18 21 1009.9 1009.7 -
10/10:30am 30.3 31.0 25.8 77 3.2 NNE 33 39 18 21 1010.0 1009.8 -
10/10:00am 30.1 31.1 25.4 76 3.3 NNE 30 35 16 19 1010.3 1010.1 -
10/09:30am 29.8 30.4 24.7 74 3.6 NNE 30 33 16 18 1010.2 1010.0 -
10/09:00am 29.6 30.9 25.8 80 2.7 NNE 30 33 16 18 1010.3 1010.1 -
10/08:30am 29.1 31.2 25.9 83 2.3 NNE 26 32 14 17 1010.1 1009.9 -
10/08:00am 28.7 30.8 25.9 85 2.0 NNE 26 30 14 16 1009.8 1009.6 -
10/07:30am 28.8 29.4 25.6 83 2.3 NNE 33 37 18 20 1009.1 1008.9 -
10/07:00am 28.8 29.4 25.4 82 2.4 NE 32 37 17 20 1008.8 1008.6 -
10/06:30am 28.6 29.2 25.4 83 2.3 NE 32 37 17 20 1008.2 1008.0 -
10/06:00am 28.6 29.6 25.4 83 2.3 NNE 30 33 16 18 1008.1 1007.9 -
10/05:30am 28.7 28.8 24.9 80 2.7 NNE 33 39 18 21 1008.0 1007.8 -
10/05:00am 28.6 29.0 25.4 83 2.3 NNE 33 37 18 20 1007.9 1007.7 -
10/04:30am 28.6 29.2 25.6 84 2.1 NNE 33 39 18 21 1008.0 1007.8 -
10/04:00am 28.6 28.9 25.2 82 2.4 NNE 33 39 18 21 1007.8 1007.6 -
10/03:30am 28.6 28.9 25.2 82 2.4 NNE 33 39 18 21 1007.9 1007.7 -
10/03:00am 28.6 27.6 25.0 81 2.5 NNE 39 43 21 23 1007.8 1007.6 -
10/02:30am 28.7 28.6 25.7 84 2.1 NE 37 43 20 23 1007.9 1007.7 -
10/02:00am 28.6 28.7 25.4 83 2.3 NE 35 39 19 21 1007.9 1007.7 -
10/01:30am 28.6 29.0 25.4 83 2.3 NE 33 39 18 21 1008.1 1007.9 -
10/01:00am 28.5 28.1 25.3 83 2.3 NE 37 43 20 23 1008.2 1008.0 -
10/12:30am 28.5 29.0 25.5 84 2.1 NNE 33 39 18 21 1008.5 1008.3 -
10/12:00am 28.5 29.5 25.9 86 1.8 NNE 32 37 17 20 1008.7 1008.5 -
 
Date/Time
WST
Temp
°C
App
Temp
°C
Dew
Point
°C
Rel
Hum
%
Delta-T
°C
Wind Press
QNH
hPa
Press
MSL
hPa
Rain since
9am
mm
Dir  Spd
km/h
Gust
km/h
Spd
kts
Gust
kts
09/11:30pm 28.6 29.4 25.6 84 2.1 NNE 32 37 17 20 1008.8 1008.6 -
09/11:00pm 28.7 29.9 25.7 84 2.1 NNE 30 35 16 19 1009.1 1008.9 -
09/10:30pm 28.8 30.1 25.2 81 2.5 NNE 28 32 15 17 1009.3 1009.1 -
09/10:00pm 28.7 30.0 25.3 82 2.4 NNE 28 32 15 17 1009.5 1009.3 -
09/09:30pm 28.7 29.3 25.3 82 2.4 NNE 32 35 17 19 1009.2 1009.0 -
09/09:00pm 28.8 30.6 26.0 85 2.0 NNE 28 33 15 18 1009.3 1009.1 -
09/08:30pm 28.9 29.7 25.7 83 2.3 NNE 32 35 17 19 1008.9 1008.7 -
09/08:00pm 28.9 30.6 25.9 84 2.1 NE 28 33 15 18 1008.6 1008.4 -
09/07:30pm 28.9 30.2 25.9 84 2.1 NE 30 33 16 18 1008.4 1008.2 -
09/07:00pm 29.0 30.3 25.8 83 2.3 NE 30 33 16 18 1008.1 1007.9 -
09/06:30pm 29.1 30.4 25.9 83 2.3 NE 30 35 16 19 1007.7 1007.5 -
09/06:00pm 29.1 30.2 25.5 81 2.5 NNE 30 35 16 19 1007.3 1007.1 -
09/05:30pm 29.4 29.8 25.4 79 2.8 NNE 33 37 18 20 1007.1 1006.9 -
09/05:00pm 29.6 29.7 25.4 78 3.0 NE 35 39 19 21 1006.8 1006.6 -
09/04:30pm 29.8 30.5 25.8 79 2.8 NE 33 39 18 21 1006.7 1006.5 -
09/04:00pm 29.9 30.0 25.4 77 3.2 NNE 35 39 19 21 1006.6 1006.4 -
09/03:30pm 29.9 30.2 25.2 76 3.3 NNE 33 39 18 21 1006.7 1006.5 -
09/03:00pm 29.9 30.2 25.2 76 3.3 NNE 33 39 18 21 1006.7 1006.5 -
09/02:30pm 30.3 31.4 25.6 76 3.3 NNE 30 33 16 18 1006.9 1006.7 -
09/02:00pm 30.2 31.5 25.9 78 3.1 NNE 30 35 16 19 1007.1 1006.9 -
09/01:30pm 29.8 30.6 26.0 80 2.7 NE 33 39 18 21 1007.1 1006.9 -
09/01:00pm 30.1 30.3 25.6 77 3.2 NNE 35 41 19 22 1007.5 1007.3 -
09/12:30pm 30.5 30.8 25.8 76 3.3 NE 35 39 19 21 1007.7 1007.5 -
09/12:00pm 30.5 31.6 26.2 78 3.1 NE 32 39 17 21 1008.1 1007.9 -
09/11:30am 29.9 30.9 26.3 81 2.6 NE 33 41 18 22 1008.2 1008.0 -
09/11:00am 30.3 30.7 26.0 78 3.1 NE 35 39 19 21 1008.4 1008.2 -
09/10:30am 29.4 29.7 25.2 78 3.0 NE 33 37 18 20 1008.6 1008.4 -
09/10:00am 28.9 28.5 24.7 78 2.9 NE 35 39 19 21 1008.6 1008.4 -
09/09:30am 29.3 29.5 25.1 78 3.0 NE 33 39 18 21 1008.6 1008.4 -
09/09:00am 28.7 30.8 24.7 79 2.8 NNE 22 28 12 15 1008.5 1008.3 -
09/08:30am 28.6 29.4 25.0 81 2.5 NNE 30 37 16 20 1008.1 1007.9 -
09/08:00am 27.8 28.8 24.8 84 2.1 NE 28 32 15 17 1007.9 1007.7 -
09/07:30am 27.9 29.1 25.1 85 2.0 NE 28 32 15 17 1007.5 1007.3 -
09/07:00am 27.7 29.2 24.9 85 2.0 NNE 26 32 14 17 1007.4 1007.2 -
09/06:30am 27.3 28.9 25.1 88 1.5 NNE 26 32 14 17 1007.3 1007.1 -
09/06:00am 26.7 29.5 24.9 90 1.3 N 19 22 10 12 1007.1 1006.9 -
09/05:30am 26.1 26.7 24.7 92 1.0 N 30 35 16 19 1006.5 1006.3 -
09/05:00am 25.7 25.2 24.5 93 0.8 N 35 43 19 23 1006.5 1006.3 -
09/04:30am 27.1 28.4 25.3 90 1.3 NNE 28 43 15 23 1006.1 1005.9 -
09/04:00am 27.8 29.8 26.4 92 1.0 NE 28 33 15 18 1006.3 1006.1 -
09/03:30am 27.3 31.7 26.2 94 0.8 NNE 15 17 8 9 1006.6 1006.4 -
09/03:00am 26.4 30.3 25.4 94 0.7 NNE 15 19 8 10 1006.6 1006.4 -
09/02:30am 27.0 30.4 25.8 93 0.8 NE 19 24 10 13 1006.5 1006.3 -
09/02:00am 27.4 30.2 25.8 91 1.1 ENE 22 28 12 15 1006.5 1006.3 -
09/01:30am 26.8 28.2 25.4 92 1.0 ENE 28 32 15 17 1006.7 1006.5 -
09/01:00am 26.9 29.6 25.7 93 0.8 ENE 22 28 12 15 1007.0 1006.8 -
09/12:30am 26.4 29.3 25.4 94 0.7 ENE 20 28 11 15 1007.3 1007.1 -
09/12:13am 26.4 29.4 25.5 95 0.6 NE 20 39 11 21 1007.4 1007.2 -
09/12:00am 26.7 31.7 26.0 96 0.5 NE 11 13 6 7 1007.5 1007.3 -
 
Date/Time
WST
Temp
°C
App
Temp
°C
Dew
Point
°C
Rel
Hum
%
Delta-T
°C
Wind Press
QNH
hPa
Press
MSL
hPa
Rain since
9am
mm
Dir  Spd
km/h
Gust
km/h
Spd
kts
Gust
kts
08/11:30pm 26.0 30.9 25.3 96 0.5 NNE 9 11 5 6 1007.7 1007.5 -
08/11:00pm 25.5 29.1 25.0 97 0.3 ENE 15 20 8 11 1008.2 1008.0 -
08/10:32pm 25.4 25.4 24.7 96 0.5 NNE 33 52 18 28 1008.4 1008.2 -
08/10:30pm 25.4 24.6 24.7 96 0.5 N 37 54 20 29 1008.3 1008.1 -
08/10:20pm 27.2 27.6 25.0 88 1.5 NE 32 44 17 24 1008.0 1007.8 -
08/10:00pm 28.2 30.6 25.8 87 1.7 NE 24 28 13 15 1008.1 1007.9 -
08/09:30pm 28.5 30.9 26.3 88 1.6 NE 26 32 14 17 1008.1 1007.9 -
08/09:00pm 28.5 30.6 25.9 86 1.8 NE 26 30 14 16 1008.2 1008.0 -
08/08:30pm 28.5 30.5 25.7 85 2.0 NNE 26 30 14 16 1008.1 1007.9 -
08/08:00pm 28.2 30.2 25.8 87 1.7 NE 26 30 14 16 1007.7 1007.5 -
08/07:30pm 27.9 30.1 25.5 87 1.7 NE 24 28 13 15 1007.2 1007.0 -
08/07:00pm 26.9 30.1 25.9 94 0.7 NNE 20 28 11 15 1006.7 1006.5 -
08/06:43pm 25.8 25.1 24.8 94 0.7 NNE 37 46 20 25 1006.6 1006.4 -
08/06:30pm 26.7 26.6 25.7 94 0.7 NNE 37 48 20 26 1006.5 1006.3 -
08/06:28pm 27.1 27.2 26.0 94 0.8 NNE 37 48 20 26 1006.5 1006.3 -
08/06:00pm 26.4 23.5 25.2 93 0.8 N 50 61 27 33 1006.3 1006.1 -
08/05:45pm 26.7 23.6 24.9 90 1.3 N 50 61 27 33 1005.9 1005.7 -
08/05:36pm 29.5 29.9 25.9 81 2.6 NE 35 61 19 33 1005.8 1005.6 -
08/05:30pm 29.5 29.9 25.9 81 2.6 NE 35 41 19 22 1005.5 1005.3 -
08/05:00pm 29.8 30.6 26.0 80 2.7 NE 33 37 18 20 1004.9 1004.7 -
08/04:30pm 30.1 30.0 25.8 78 3.1 NE 37 41 20 22 1004.6 1004.4 -
08/04:00pm 30.3 31.2 25.8 77 3.2 NE 32 37 17 20 1004.8 1004.6 -
08/03:30pm 30.4 30.8 25.9 77 3.2 NE 35 43 19 23 1004.5 1004.3 -

Other formats

Comma delimited format used in spreadsheet applications
http://www.bom.gov.au/fwo/IDW60801/IDW60801.94307.axf

JavaScript Object Notation format (JSON) in row-major order
http://www.bom.gov.au/fwo/IDW60801/IDW60801.94307.json

Data quality

Most of these data are generated automatically and are frequently updated. Quality checks on data are not normally performed. It is possible for incorrect values to appear. Refer to information at About Latest Weather Observations and please check the disclaimer before using these data.